Time;durP1;ratioP1;P1;durP2;ratioP2;P2;SDS_P1;SDS_P2;PMS_P1;PMS_P2;Temp;Humidity;BMP_temperature;BMP_pressure;BME280_temperature;BME280_humidity;BME280_pressure;Samples;Min_cycle;Max_cycle;Signal;HPM_P1;HPM_P2
2023/07/11 00:00:17;;;;;;;5.63;5.33;;;20.20;69.20;;;;;;6280235;28;20238;-77
2023/07/11 00:03:21;;;;;;;5.67;5.47;;;20.10;69.30;;;;;;6277230;28;20237;-79
2023/07/11 00:06:25;;;;;;;5.23;5.03;;;20.10;69.50;;;;;;6272066;28;20243;-78
2023/07/11 00:09:28;;;;;;;5.57;5.30;;;20.10;69.60;;;;;;6265780;28;20229;-76
2023/07/11 00:12:31;;;;;;;5.67;5.23;;;20.00;69.60;;;;;;6261810;28;20311;-77
2023/07/11 00:15:35;;;;;;;5.43;5.23;;;20.00;69.90;;;;;;6276396;28;20328;-77
2023/07/11 00:18:38;;;;;;;5.13;5.00;;;19.90;69.90;;;;;;6284913;28;20314;-78
2023/07/11 00:21:43;;;;;;;5.50;5.20;;;19.90;69.90;;;;;;6256948;28;20247;-78
2023/07/11 00:24:46;;;;;;;5.70;5.50;;;19.90;69.80;;;;;;6285770;28;20250;-78
2023/07/11 00:27:49;;;;;;;5.07;4.87;;;19.90;70.10;;;;;;6286360;28;20321;-79
2023/07/11 00:30:53;;;;;;;4.93;4.83;;;19.90;70.20;;;;;;6260007;28;20679;-78
2023/07/11 00:33:56;;;;;;;5.33;5.13;;;19.80;70.20;;;;;;6260380;28;20276;-77
2023/07/11 00:37:00;;;;;;;5.50;5.20;;;19.80;70.40;;;;;;6280900;28;20263;-78
2023/07/11 00:40:04;;;;;;;5.07;4.97;;;19.80;70.20;;;;;;6278050;28;20265;-76
2023/07/11 00:43:11;;;;;;;5.00;4.80;;;19.80;70.20;;;;;;6257858;28;20240;-79
2023/07/11 00:46:16;;;;;;;6.03;5.73;;;19.70;70.10;;;;;;6272831;28;20780;-77
2023/07/11 00:49:21;;;;;;;5.30;5.10;;;19.70;70.40;;;;;;6269368;28;20316;-77
2023/07/11 00:52:28;;;;;;;6.03;5.73;;;19.70;70.50;;;;;;6253344;28;20241;-77
2023/07/11 00:55:31;;;;;;;4.87;4.73;;;19.70;70.90;;;;;;6271003;28;20240;-77
2023/07/11 00:58:36;;;;;;;5.93;5.47;;;19.70;70.70;;;;;;6278779;28;20282;-78
2023/07/11 01:01:39;;;;;;;5.00;4.83;;;19.70;70.50;;;;;;6242419;28;20968;-78
2023/07/11 01:04:43;;;;;;;4.80;4.60;;;19.60;70.70;;;;;;6250719;28;20296;-75
2023/07/11 01:07:48;;;;;;;5.37;5.07;;;19.60;70.80;;;;;;6256832;28;20237;-76
2023/07/11 01:10:51;;;;;;;4.70;4.50;;;19.50;70.80;;;;;;6274575;28;20608;-77
2023/07/11 01:13:55;;;;;;;5.40;5.10;;;19.50;70.80;;;;;;6284329;28;20297;-77
2023/07/11 01:16:58;;;;;;;5.50;5.17;;;19.50;70.90;;;;;;6272791;28;20631;-79
2023/07/11 01:20:04;;;;;;;5.47;5.20;;;19.50;71.20;;;;;;6276508;28;20388;-79
2023/07/11 01:23:09;;;;;;;5.50;5.20;;;19.40;71.30;;;;;;6281038;28;20256;-77
2023/07/11 01:26:13;;;;;;;5.00;4.80;;;19.40;71.60;;;;;;6260941;28;20314;-78
2023/07/11 01:29:16;;;;;;;4.90;4.70;;;19.40;71.70;;;;;;6267871;28;20246;-77
2023/07/11 01:32:19;;;;;;;4.87;4.50;;;19.40;71.60;;;;;;6267249;28;20247;-77
2023/07/11 01:35:22;;;;;;;4.97;4.77;;;19.40;71.60;;;;;;6264109;28;20271;-77
2023/07/11 01:38:27;;;;;;;4.90;4.70;;;19.30;71.70;;;;;;6271072;28;20312;-77
2023/07/11 01:41:30;;;;;;;4.90;4.70;;;19.30;72.10;;;;;;6274334;28;20279;-78
2023/07/11 01:44:34;;;;;;;4.67;4.57;;;19.30;72.00;;;;;;6275653;28;20235;-78
2023/07/11 01:47:37;;;;;;;5.10;4.80;;;19.20;72.00;;;;;;6262314;28;20234;-79
2023/07/11 01:50:40;;;;;;;5.67;5.37;;;19.20;72.10;;;;;;6246927;28;20279;-77
2023/07/11 01:53:45;;;;;;;5.50;5.20;;;19.20;72.20;;;;;;6274350;28;20242;-77
2023/07/11 01:56:48;;;;;;;6.83;5.70;;;19.20;72.20;;;;;;6276576;28;20948;-77
2023/07/11 01:59:51;;;;;;;6.07;5.77;;;19.10;72.30;;;;;;6258747;28;20357;-76
2023/07/11 02:02:54;;;;;;;6.03;5.70;;;19.10;72.50;;;;;;6259837;28;20382;-77
2023/07/11 02:05:58;;;;;;;5.67;5.47;;;19.10;72.70;;;;;;6264421;28;20238;-78
2023/07/11 02:09:02;;;;;;;6.73;6.23;;;19.00;72.70;;;;;;6257996;28;20244;-77
2023/07/11 02:12:06;;;;;;;5.80;5.60;;;19.00;72.90;;;;;;6260594;28;20245;-76
2023/07/11 02:15:11;;;;;;;5.17;5.03;;;19.00;72.90;;;;;;6257834;28;20245;-77
2023/07/11 02:18:15;;;;;;;5.73;5.50;;;19.00;72.90;;;;;;6265031;28;20793;-77
2023/07/11 02:21:18;;;;;;;7.53;7.03;;;19.00;72.90;;;;;;6268398;28;20237;-77
2023/07/11 02:24:23;;;;;;;6.57;6.17;;;18.90;73.10;;;;;;6253977;28;20238;-79
2023/07/11 02:27:26;;;;;;;6.40;6.10;;;18.90;73.10;;;;;;6267331;28;20248;-76
2023/07/11 02:30:29;;;;;;;5.80;5.57;;;18.90;73.10;;;;;;6258873;28;20238;-77
2023/07/11 02:33:32;;;;;;;5.80;5.50;;;18.90;73.00;;;;;;6261634;28;20308;-78
2023/07/11 02:36:35;;;;;;;6.70;6.27;;;18.90;73.00;;;;;;6277132;28;20280;-76
2023/07/11 02:39:40;;;;;;;5.40;5.10;;;18.90;73.00;;;;;;6274508;28;20233;-77
2023/07/11 02:42:43;;;;;;;6.17;5.87;;;18.80;73.20;;;;;;6261488;28;20303;-78
2023/07/11 02:45:46;;;;;;;6.20;5.90;;;18.80;73.20;;;;;;6268274;28;20238;-76
2023/07/11 02:48:49;;;;;;;6.33;5.90;;;18.70;73.20;;;;;;6256837;28;20233;-78
2023/07/11 02:51:52;;;;;;;5.37;5.07;;;18.70;73.20;;;;;;6271521;28;20248;-75
2023/07/11 02:54:56;;;;;;;6.20;5.70;;;18.60;73.20;;;;;;6266235;28;20231;-77
2023/07/11 02:58:00;;;;;;;5.60;5.20;;;18.60;73.30;;;;;;6261407;28;20297;-77
2023/07/11 03:01:05;;;;;;;6.00;5.63;;;18.50;73.30;;;;;;6276682;28;20245;-77
2023/07/11 03:04:08;;;;;;;5.57;5.27;;;18.50;73.30;;;;;;6281103;28;20243;-77
2023/07/11 03:07:11;;;;;;;5.30;5.10;;;18.40;73.40;;;;;;6256285;28;20288;-76
2023/07/11 03:10:16;;;;;;;5.47;5.27;;;18.50;73.40;;;;;;6275350;28;20316;-76
2023/07/11 03:13:20;;;;;;;4.67;4.57;;;18.40;73.30;;;;;;6275285;28;20289;-77
2023/07/11 03:16:23;;;;;;;4.87;4.77;;;18.40;73.30;;;;;;6266232;28;20237;-77
2023/07/11 03:19:26;;;;;;;5.23;4.97;;;18.40;73.30;;;;;;6269537;28;20245;-77
2023/07/11 03:22:30;;;;;;;4.73;4.53;;;18.40;73.20;;;;;;6270725;28;20309;-78
2023/07/11 03:25:34;;;;;;;5.20;5.00;;;18.40;73.20;;;;;;6268993;28;20327;-76
2023/07/11 03:28:37;;;;;;;4.90;4.80;;;18.40;73.20;;;;;;6277930;28;20277;-78
2023/07/11 03:31:40;;;;;;;5.33;4.93;;;18.40;73.20;;;;;;6252436;28;20918;-78
2023/07/11 03:34:43;;;;;;;4.93;4.63;;;18.40;73.20;;;;;;6254391;28;20242;-79
2023/07/11 03:38:00;;;;;;;5.73;5.40;;;18.40;73.20;;;;;;6268664;28;20245;-76
2023/07/11 03:41:04;;;;;;;5.73;5.30;;;18.40;73.30;;;;;;6258575;28;20234;-75
2023/07/11 03:44:07;;;;;;;5.67;5.30;;;18.40;73.40;;;;;;6252706;28;20900;-77
2023/07/11 03:47:10;;;;;;;5.20;5.00;;;18.40;73.30;;;;;;6245136;28;20246;-79
2023/07/11 03:50:14;;;;;;;4.97;4.77;;;18.40;73.40;;;;;;6263354;28;20241;-82
2023/07/11 03:53:17;;;;;;;6.07;5.77;;;18.40;73.40;;;;;;6253847;28;20281;-79
2023/07/11 03:56:23;;;;;;;5.80;5.33;;;18.50;73.20;;;;;;6256817;28;20276;-80
2023/07/11 03:59:26;;;;;;;5.67;5.23;;;18.50;73.20;;;;;;6261721;28;20312;-79
2023/07/11 04:02:29;;;;;;;6.27;5.90;;;18.50;73.30;;;;;;6256028;28;20245;-77
2023/07/11 04:05:32;;;;;;;5.80;5.40;;;18.60;73.30;;;;;;6259602;28;20751;-75
2023/07/11 04:08:35;;;;;;;4.77;4.67;;;18.60;73.30;;;;;;6263551;28;20242;-79
2023/07/11 04:11:40;;;;;;;5.20;5.00;;;18.70;73.20;;;;;;6251858;28;20280;-79
2023/07/11 04:14:43;;;;;;;6.20;5.80;;;18.80;73.00;;;;;;6259511;28;20285;-76
2023/07/11 04:17:46;;;;;;;5.83;5.47;;;18.80;72.80;;;;;;6261418;28;20847;-77
2023/07/11 04:20:49;;;;;;;5.03;4.67;;;18.90;72.60;;;;;;6265786;28;20234;-76
2023/07/11 04:23:53;;;;;;;5.90;5.40;;;18.90;72.30;;;;;;6256858;28;20362;-76
2023/07/11 04:26:57;;;;;;;6.50;5.23;;;19.00;72.10;;;;;;6248006;28;20247;-76
2023/07/11 04:30:00;;;;;;;4.63;4.43;;;19.10;71.90;;;;;;6243687;28;20261;-78
2023/07/11 04:33:03;;;;;;;5.00;4.70;;;19.10;71.70;;;;;;6252858;28;20246;-75
2023/07/11 04:36:11;;;;;;;5.17;4.80;;;19.10;71.30;;;;;;6245294;28;20269;-77
2023/07/11 04:39:14;;;;;;;6.57;4.77;;;19.20;71.10;;;;;;6256179;28;20313;-77
2023/07/11 04:42:19;;;;;;;4.77;4.50;;;19.30;70.90;;;;;;6252607;28;20237;-77
2023/07/11 04:45:22;;;;;;;4.53;4.27;;;19.30;70.70;;;;;;6263634;28;20789;-76
2023/07/11 04:48:26;;;;;;;4.40;4.20;;;19.40;70.60;;;;;;6261180;28;20336;-76
2023/07/11 04:51:29;;;;;;;6.30;5.77;;;19.50;70.20;;;;;;6249491;28;20269;-77
2023/07/11 04:54:32;;;;;;;5.67;5.13;;;19.50;70.00;;;;;;6261954;28;20322;-75
2023/07/11 04:57:37;;;;;;;7.13;5.27;;;19.60;69.70;;;;;;6258645;28;20354;-77
2023/07/11 05:00:40;;;;;;;6.67;6.07;;;19.70;69.40;;;;;;6250849;28;20330;-77
2023/07/11 05:03:44;;;;;;;5.70;5.30;;;19.90;69.30;;;;;;6255190;28;20391;-78
2023/07/11 05:06:48;;;;;;;5.10;4.70;;;20.00;68.80;;;;;;6263371;28;20245;-80
2023/07/11 05:09:53;;;;;;;5.10;4.90;;;20.30;68.50;;;;;;6270148;28;20244;-77
2023/07/11 05:13:03;;;;;;;4.97;4.60;;;20.60;67.70;;;;;;6262665;28;20230;-78
2023/07/11 05:16:08;;;;;;;5.47;5.07;;;21.00;67.30;;;;;;6269563;28;20674;-80
2023/07/11 05:19:12;;;;;;;8.33;6.13;;;21.30;66.50;;;;;;6249089;28;20721;-77
2023/07/11 05:22:15;;;;;;;5.97;5.33;;;21.60;66.00;;;;;;6270333;28;20240;-76
2023/07/11 05:25:18;;;;;;;4.87;4.67;;;21.80;66.00;;;;;;6264429;28;20251;-77
2023/07/11 05:28:24;;;;;;;4.97;4.57;;;22.10;65.10;;;;;;6273326;28;20234;-80
2023/07/11 05:31:27;;;;;;;4.37;3.93;;;22.30;63.40;;;;;;6267130;28;20238;-80
2023/07/11 05:34:30;;;;;;;5.80;5.30;;;22.50;62.30;;;;;;6287268;28;20299;-80
2023/07/11 05:37:37;;;;;;;5.47;4.93;;;22.30;63.30;;;;;;6270965;28;20242;-77
2023/07/11 05:40:43;;;;;;;5.43;5.03;;;22.70;63.30;;;;;;6284406;28;20792;-80
2023/07/11 05:43:47;;;;;;;5.00;4.70;;;23.00;63.10;;;;;;6286576;28;20697;-81
2023/07/11 05:46:50;;;;;;;7.37;5.63;;;23.10;63.10;;;;;;6272600;28;20424;-79
2023/07/11 05:49:53;;;;;;;4.93;4.50;;;23.20;62.80;;;;;;6272852;28;20889;-80
2023/07/11 05:52:56;;;;;;;5.43;5.03;;;23.30;62.20;;;;;;6278447;28;20238;-80
2023/07/11 05:55:59;;;;;;;5.53;5.13;;;23.30;62.60;;;;;;6319740;28;20237;-80
2023/07/11 05:59:04;;;;;;;5.30;4.83;;;23.30;62.90;;;;;;6289829;28;20244;-80
2023/07/11 06:02:10;;;;;;;5.83;5.13;;;23.10;63.40;;;;;;6282269;28;20923;-79
2023/07/11 06:05:15;;;;;;;5.37;4.87;;;23.50;63.20;;;;;;6269145;28;20234;-82
2023/07/11 06:08:18;;;;;;;5.30;4.60;;;23.90;61.80;;;;;;6271819;28;20226;-82
2023/07/11 06:11:21;;;;;;;4.83;4.43;;;24.20;60.90;;;;;;6279865;28;20320;-82
2023/07/11 06:14:27;;;;;;;5.77;5.10;;;24.40;60.60;;;;;;6268872;28;20265;-83
2023/07/11 06:17:31;;;;;;;4.73;4.33;;;24.60;59.70;;;;;;6295538;28;20238;-80
2023/07/11 06:20:34;;;;;;;6.63;4.67;;;24.60;59.20;;;;;;6263117;28;20254;-82
2023/07/11 06:23:37;;;;;;;5.30;4.90;;;24.80;59.10;;;;;;6266444;28;20972;-84
2023/07/11 06:26:40;;;;;;;4.60;4.37;;;25.00;58.80;;;;;;6269388;28;20313;-82
2023/07/11 06:29:46;;;;;;;4.23;3.80;;;24.70;59.00;;;;;;6280070;28;21301;-80
2023/07/11 06:32:49;;;;;;;4.33;3.93;;;24.90;58.20;;;;;;6270745;28;20242;-82
2023/07/11 06:35:53;;;;;;;4.07;3.83;;;25.00;57.50;;;;;;6268791;28;20248;-81
2023/07/11 06:38:56;;;;;;;4.27;4.00;;;25.00;57.50;;;;;;6271988;28;20740;-81
2023/07/11 06:41:59;;;;;;;5.10;4.70;;;25.00;57.70;;;;;;6262408;28;20276;-80
2023/07/11 06:45:04;;;;;;;5.30;5.00;;;25.30;56.80;;;;;;6297217;28;20648;-82
2023/07/11 06:48:07;;;;;;;5.07;4.60;;;25.40;56.00;;;;;;6273314;28;20233;-82
2023/07/11 06:51:10;;;;;;;4.33;3.93;;;25.40;55.30;;;;;;6270725;28;20291;-80
2023/07/11 06:54:14;;;;;;;3.90;3.60;;;25.60;54.40;;;;;;6279141;28;20238;-83
2023/07/11 06:57:18;;;;;;;3.40;3.20;;;25.80;55.10;;;;;;6267480;28;20321;-82
2023/07/11 07:00:25;;;;;;;3.40;2.80;;;25.80;54.10;;;;;;6260452;28;20233;-81
2023/07/11 07:03:29;;;;;;;16.43;5.20;;;26.00;55.00;;;;;;6272112;28;20311;-80
2023/07/11 07:06:32;;;;;;;5.50;3.70;;;26.20;54.40;;;;;;6253592;28;20242;-81
2023/07/11 07:09:36;;;;;;;7.13;3.50;;;26.10;53.90;;;;;;6254731;28;20242;-81
2023/07/11 07:12:39;;;;;;;3.53;3.20;;;25.60;54.20;;;;;;6270436;28;20240;-81
2023/07/11 07:15:47;;;;;;;3.87;3.40;;;25.00;55.20;;;;;;6245225;28;20787;-82
2023/07/11 07:18:50;;;;;;;3.70;3.40;;;24.80;56.40;;;;;;6260046;28;20237;-81
2023/07/11 07:21:53;;;;;;;3.80;3.50;;;25.20;56.20;;;;;;6270801;28;20339;-81
2023/07/11 07:24:56;;;;;;;4.17;3.87;;;25.00;56.30;;;;;;6262863;28;20317;-84
2023/07/11 07:28:07;;;;;;;3.57;3.37;;;24.80;54.80;;;;;;6266313;28;20363;-82
2023/07/11 07:31:11;;;;;;;4.77;3.80;;;24.80;56.10;;;;;;6274151;28;20308;-81
2023/07/11 07:34:14;;;;;;;3.77;3.67;;;25.20;56.30;;;;;;6280741;28;20843;-85
2023/07/11 07:37:17;;;;;;;3.90;3.60;;;25.30;55.70;;;;;;6308912;28;20270;-82
2023/07/11 07:40:22;;;;;;;6.20;3.13;;;25.40;55.10;;;;;;6292792;28;20354;-82
2023/07/11 07:43:26;;;;;;;4.67;3.87;;;25.50;53.50;;;;;;6289919;28;20741;-81
2023/07/11 07:46:31;;;;;;;4.13;3.83;;;25.40;55.00;;;;;;6292060;28;20238;-82
2023/07/11 07:49:34;;;;;;;3.10;2.90;;;25.20;55.60;;;;;;6294918;28;20241;-81
2023/07/11 07:52:56;;;;;;;4.00;3.70;;;25.30;55.40;;;;;;6287498;28;20732;-83
2023/07/11 07:56:04;;;;;;;4.50;3.50;;;25.30;54.70;;;;;;6299418;28;20744;-81
2023/07/11 07:59:07;;;;;;;3.90;3.70;;;25.50;54.40;;;;;;6290223;28;20647;-83
2023/07/11 08:02:13;;;;;;;5.13;4.50;;;25.40;54.20;;;;;;6295393;28;20324;-84
2023/07/11 08:05:17;;;;;;;3.97;3.63;;;25.10;54.30;;;;;;6293868;28;20299;-83
2023/07/11 08:08:20;;;;;;;3.63;3.43;;;25.20;53.40;;;;;;6300068;28;20234;-83
2023/07/11 08:11:24;;;;;;;3.57;3.27;;;25.40;53.40;;;;;;6306953;28;20244;-81
2023/07/11 08:14:27;;;;;;;2.80;2.63;;;25.10;52.50;;;;;;6290608;28;20775;-81
2023/07/11 08:17:32;;;;;;;3.87;3.73;;;25.00;51.50;;;;;;6299374;28;20244;-81
2023/07/11 08:20:36;;;;;;;3.37;3.17;;;25.00;52.10;;;;;;6286080;28;20234;-83
2023/07/11 08:23:39;;;;;;;3.33;3.07;;;24.90;52.50;;;;;;6306951;28;20248;-81
2023/07/11 08:26:42;;;;;;;4.97;3.10;;;25.00;52.90;;;;;;6286122;28;20777;-82
2023/07/11 08:29:46;;;;;;;4.00;3.00;;;25.00;51.70;;;;;;6301534;28;20232;-82
2023/07/11 08:32:50;;;;;;;4.90;3.07;;;25.00;50.50;;;;;;6268270;28;20240;-80
2023/07/11 08:35:56;;;;;;;6.33;3.13;;;25.00;51.60;;;;;;6284481;28;20225;-82
2023/07/11 08:38:59;;;;;;;3.10;2.90;;;25.20;52.10;;;;;;6306563;28;20321;-83
2023/07/11 08:42:07;;;;;;;3.73;2.83;;;25.00;51.20;;;;;;6287526;28;20233;-81
2023/07/11 08:45:19;;;;;;;2.73;2.53;;;25.10;50.60;;;;;;6296987;28;20279;-82
2023/07/11 08:48:28;;;;;;;3.37;2.40;;;25.00;50.50;;;;;;6295248;28;20302;-82
2023/07/11 08:51:36;;;;;;;5.13;2.43;;;25.30;50.00;;;;;;6289704;28;20291;-80
2023/07/11 08:54:53;;;;;;;2.83;2.40;;;25.50;49.80;;;;;;6291704;28;20247;-82
2023/07/11 08:58:05;;;;;;;3.07;2.87;;;25.80;49.60;;;;;;6291621;28;20763;-82
2023/07/11 09:01:24;;;;;;;3.17;2.87;;;26.10;49.30;;;;;;6286642;28;20237;-82
2023/07/11 09:04:31;;;;;;;9.43;2.73;;;26.10;48.10;;;;;;6266556;28;20238;-82
2023/07/11 09:07:38;;;;;;;3.00;2.80;;;26.10;49.70;;;;;;6272096;28;20242;-84
2023/07/11 09:10:45;;;;;;;3.00;2.80;;;26.30;49.50;;;;;;6278215;28;20233;-82
2023/07/11 09:14:24;;;;;;;2.73;2.63;;;26.40;47.30;;;;;;6271994;28;20241;-85
2023/07/11 09:17:37;;;;;;;2.60;2.50;;;26.20;46.60;;;;;;6265488;28;20229;-82
2023/07/11 09:20:46;;;;;;;2.67;2.40;;;26.30;48.00;;;;;;6249530;28;20230;-82
2023/07/11 09:23:58;;;;;;;2.70;2.50;;;26.60;47.70;;;;;;6272883;28;20261;-81
2023/07/11 09:27:24;;;;;;;3.00;2.90;;;26.70;46.40;;;;;;6277075;28;20708;-83
2023/07/11 09:30:33;;;;;;;2.90;2.70;;;26.90;47.20;;;;;;6283425;28;20260;-81
2023/07/11 09:33:40;;;;;;;7.23;3.07;;;26.90;47.20;;;;;;6269277;28;20384;-83
2023/07/11 09:36:47;;;;;;;3.20;2.90;;;26.70;47.90;;;;;;6269626;28;20237;-84
2023/07/11 09:39:54;;;;;;;2.70;2.50;;;26.70;47.00;;;;;;6279045;28;20229;-81
2023/07/11 09:42:59;;;;;;;3.17;2.90;;;26.50;46.70;;;;;;6251743;28;20253;-81
2023/07/11 09:46:03;;;;;;;2.80;2.70;;;26.40;47.20;;;;;;6266474;28;20237;-80
2023/07/11 09:49:08;;;;;;;2.77;2.57;;;26.50;47.60;;;;;;6272972;28;20230;-81
2023/07/11 09:52:21;;;;;;;2.57;2.37;;;26.40;47.10;;;;;;6255436;28;20239;-82
2023/07/11 09:55:30;;;;;;;3.27;2.97;;;26.50;47.50;;;;;;6262783;28;20229;-82
2023/07/11 09:58:35;;;;;;;2.67;2.50;;;26.80;47.90;;;;;;6273850;28;20233;-82
2023/07/11 10:01:38;;;;;;;5.47;2.70;;;27.00;46.70;;;;;;6262016;28;20851;-80
2023/07/11 10:04:42;;;;;;;2.57;2.40;;;27.10;46.40;;;;;;6246033;28;20241;-81
2023/07/11 10:07:59;;;;;;;2.73;2.53;;;27.00;46.70;;;;;;6269474;28;20773;-82
2023/07/11 10:11:04;;;;;;;5.37;3.10;;;26.90;47.10;;;;;;6266777;28;20249;-82
2023/07/11 10:14:17;;;;;;;3.57;2.87;;;26.70;47.40;;;;;;6264273;28;20287;-80
2023/07/11 10:17:23;;;;;;;3.70;2.43;;;26.90;47.70;;;;;;6283195;28;20230;-83
2023/07/11 10:20:26;;;;;;;9.47;3.37;;;27.10;47.80;;;;;;6284979;28;20241;-80
2023/07/11 10:23:31;;;;;;;6.77;2.43;;;27.30;46.70;;;;;;6273298;28;20268;-80
2023/07/11 10:26:39;;;;;;;3.50;2.40;;;27.20;46.20;;;;;;6289988;28;20289;-79
2023/07/11 10:29:47;;;;;;;3.10;2.90;;;27.30;46.10;;;;;;6291706;28;20304;-81
2023/07/11 10:32:57;;;;;;;2.97;2.77;;;27.40;45.20;;;;;;6307767;28;20309;-80
2023/07/11 10:36:24;;;;;;;3.67;2.70;;;27.40;46.00;;;;;;6306151;28;20235;-81
2023/07/11 10:39:41;;;;;;;3.80;3.40;;;27.20;46.10;;;;;;6307780;28;20229;-80
2023/07/11 10:42:48;;;;;;;3.00;2.90;;;27.30;46.50;;;;;;6305780;28;20236;-83
2023/07/11 10:45:56;;;;;;;3.33;2.80;;;27.20;45.70;;;;;;6292577;28;20328;-82
2023/07/11 10:49:06;;;;;;;3.07;2.87;;;27.20;45.00;;;;;;6275573;28;20248;-81
2023/07/11 10:52:19;;;;;;;3.57;3.37;;;27.20;46.10;;;;;;6289260;28;20233;-82
2023/07/11 10:55:32;;;;;;;3.80;3.60;;;27.30;45.60;;;;;;6289129;28;20233;-81
2023/07/11 10:58:35;;;;;;;7.23;3.80;;;27.40;46.20;;;;;;6286091;28;20311;-84
2023/07/11 11:01:46;;;;;;;4.20;3.27;;;27.40;46.00;;;;;;6268977;28;20331;-81
2023/07/11 11:05:14;;;;;;;3.77;3.20;;;27.40;46.50;;;;;;6274049;28;20223;-80
2023/07/11 11:08:24;;;;;;;3.67;3.20;;;27.50;47.00;;;;;;6269378;28;20236;-82
2023/07/11 11:11:42;;;;;;;3.93;3.73;;;27.40;46.00;;;;;;6272695;28;20226;-81
2023/07/11 11:14:49;;;;;;;3.13;3.10;;;27.40;46.00;;;;;;6265359;28;20230;-82
2023/07/11 11:18:01;;;;;;;3.13;2.93;;;27.50;45.20;;;;;;6263858;28;20332;-84
2023/07/11 11:21:11;;;;;;;5.40;5.00;;;27.50;45.80;;;;;;6274875;28;20315;-82
2023/07/11 11:24:39;;;;;;;3.83;3.47;;;27.70;45.40;;;;;;6263476;28;20237;-82
2023/07/11 11:27:53;;;;;;;6.67;4.90;;;27.70;46.30;;;;;;6273444;28;20262;-81
2023/07/11 11:31:03;;;;;;;3.67;3.47;;;27.80;45.60;;;;;;6286124;28;20264;-80
2023/07/11 11:34:21;;;;;;;4.57;4.27;;;27.50;45.70;;;;;;6272887;28;20894;-81
2023/07/11 11:37:33;;;;;;;3.63;3.37;;;27.70;45.80;;;;;;6278929;28;20267;-79
2023/07/11 11:40:40;;;;;;;36.93;6.30;;;27.90;45.90;;;;;;6272580;28;20690;-81
2023/07/11 11:43:49;;;;;;;7.37;3.70;;;27.90;45.70;;;;;;6258875;28;20290;-80
2023/07/11 11:46:55;;;;;;;3.63;3.03;;;27.90;46.10;;;;;;6260501;28;20328;-81
2023/07/11 11:50:03;;;;;;;4.00;3.70;;;28.00;45.40;;;;;;6265880;28;20269;-82
2023/07/11 11:53:24;;;;;;;6.00;3.90;;;28.10;45.90;;;;;;6284156;28;20765;-80
2023/07/11 11:56:28;;;;;;;3.83;3.47;;;28.30;45.70;;;;;;6299765;28;20232;-82
2023/07/11 11:59:33;;;;;;;3.57;3.37;;;28.40;45.20;;;;;;6291613;28;21839;-80
2023/07/11 12:02:39;;;;;;;3.87;3.67;;;28.50;45.20;;;;;;6295847;28;20304;-80
2023/07/11 12:05:49;;;;;;;3.83;3.40;;;28.50;44.60;;;;;;6300254;28;20297;-79
2023/07/11 12:09:25;;;;;;;3.43;3.20;;;28.60;45.50;;;;;;6279052;28;20258;-80
2023/07/11 12:12:53;;;;;;;7.73;3.83;;;28.60;44.40;;;;;;6269464;28;20327;-81
2023/07/11 12:16:02;;;;;;;3.53;3.33;;;28.50;44.30;;;;;;6264336;28;20287;-81
2023/07/11 12:19:30;;;;;;;4.03;3.70;;;28.60;44.90;;;;;;6271497;28;20241;-80
2023/07/11 12:23:12;;;;;;;9.33;3.77;;;28.50;45.00;;;;;;6271235;28;20391;-80
2023/07/11 12:26:36;;;;;;;4.30;4.00;;;28.30;45.30;;;;;;6267637;28;20240;-80
2023/07/11 12:29:48;;;;;;;3.40;3.30;;;28.30;45.20;;;;;;6258056;28;20370;-81
2023/07/11 12:32:53;;;;;;;6.30;3.50;;;28.40;45.20;;;;;;6269931;28;20251;-79
2023/07/11 12:36:11;;;;;;;3.63;3.43;;;28.60;44.90;;;;;;6255929;28;20244;-81
2023/07/11 12:39:35;;;;;;;3.33;3.10;;;28.80;44.40;;;;;;6265618;28;20361;-81
2023/07/11 12:42:49;;;;;;;3.60;3.40;;;28.90;43.90;;;;;;6261209;28;20284;-84
2023/07/11 12:45:56;;;;;;;3.17;3.08;;;29.00;44.80;;;;;;6265821;28;20328;-81
2023/07/11 12:48:59;;;;;;;3.33;3.22;;;29.20;44.60;;;;;;6265028;28;20750;-80
2023/07/11 12:52:05;;;;;;;3.70;3.50;;;29.30;44.70;;;;;;6256054;28;20235;-81
2023/07/11 12:55:11;;;;;;;7.00;3.42;;;29.40;44.30;;;;;;6252507;28;20368;-81
2023/07/11 12:58:21;;;;;;;4.32;3.10;;;29.50;44.50;;;;;;6265099;28;20469;-82
2023/07/11 13:01:25;;;;;;;3.63;3.42;;;29.50;43.90;;;;;;6241435;28;20248;-83
2023/07/11 13:04:34;;;;;;;3.67;3.50;;;29.30;43.60;;;;;;6250365;28;20261;-82
2023/07/11 13:07:38;;;;;;;4.70;4.40;;;29.30;42.70;;;;;;6275660;28;20876;-81
2023/07/11 13:10:41;;;;;;;6.88;3.40;;;29.20;43.20;;;;;;6272415;28;20283;-80
2023/07/11 13:13:47;;;;;;;4.05;3.78;;;29.20;43.70;;;;;;6263870;28;20752;-81
2023/07/11 13:16:51;;;;;;;3.50;3.30;;;29.50;44.20;;;;;;6279400;28;20296;-80
2023/07/11 13:19:59;;;;;;;4.45;3.70;;;29.70;44.00;;;;;;6247545;28;20241;-79
2023/07/11 13:23:02;;;;;;;9.18;3.67;;;29.70;43.30;;;;;;6271720;28;20271;-81
2023/07/11 13:26:09;;;;;;;3.17;3.05;;;29.70;44.00;;;;;;6276086;28;20729;-81
2023/07/11 13:29:17;;;;;;;4.18;3.97;;;29.90;42.70;;;;;;6270478;28;20908;-81
2023/07/11 13:32:23;;;;;;;3.40;3.20;;;29.70;42.10;;;;;;6264380;28;20225;-81
2023/07/11 13:35:27;;;;;;;3.75;3.63;;;29.50;42.60;;;;;;6272071;28;20737;-83
2023/07/11 13:38:41;;;;;;;4.25;3.78;;;29.20;43.20;;;;;;6260790;28;20218;-80
2023/07/11 13:41:48;;;;;;;3.75;3.45;;;29.20;42.80;;;;;;6261994;28;20237;-81
2023/07/11 13:44:53;;;;;;;3.90;3.60;;;29.20;42.90;;;;;;6273611;28;20257;-80
2023/07/11 13:47:57;;;;;;;3.92;3.58;;;29.30;43.40;;;;;;6275191;28;20881;-81
2023/07/11 13:51:16;;;;;;;4.70;3.80;;;29.50;43.30;;;;;;6252594;28;20245;-81
2023/07/11 13:54:23;;;;;;;4.50;4.22;;;29.50;42.50;;;;;;6276903;28;20241;-80
2023/07/11 13:57:27;;;;;;;3.92;3.72;;;29.50;43.10;;;;;;6268109;28;20241;-83
2023/07/11 14:00:31;;;;;;;4.30;4.10;;;29.70;42.30;;;;;;6278475;28;20714;-80
2023/07/11 14:03:34;;;;;;;4.30;4.00;;;29.90;42.80;;;;;;6270253;28;20887;-80
2023/07/11 14:06:39;;;;;;;4.20;3.92;;;30.00;42.50;;;;;;6277638;28;20368;-80
2023/07/11 14:09:42;;;;;;;3.60;3.40;;;30.00;42.50;;;;;;6253091;28;20241;-80
2023/07/11 14:12:46;;;;;;;3.58;3.38;;;30.10;42.30;;;;;;6279740;28;20618;-80
2023/07/11 14:15:51;;;;;;;4.47;4.25;;;30.10;42.80;;;;;;6285055;28;20233;-81
2023/07/11 14:18:55;;;;;;;4.65;4.43;;;30.30;41.80;;;;;;6276442;28;20238;-81
2023/07/11 14:21:58;;;;;;;6.13;4.53;;;30.50;42.40;;;;;;6268496;28;20249;-81
2023/07/11 14:25:01;;;;;;;4.53;4.22;;;30.50;41.50;;;;;;6260450;28;20661;-80
2023/07/11 14:28:05;;;;;;;4.30;4.03;;;30.50;42.00;;;;;;6276967;28;20241;-79
2023/07/11 14:31:16;;;;;;;4.28;3.92;;;30.70;42.10;;;;;;6284456;28;20724;-80
2023/07/11 14:34:21;;;;;;;4.15;3.85;;;30.70;41.20;;;;;;6278788;28;20710;-81
2023/07/11 14:37:24;;;;;;;4.75;4.22;;;30.50;41.70;;;;;;6276437;28;21003;-80
2023/07/11 14:40:30;;;;;;;4.20;4.05;;;30.40;41.40;;;;;;6272862;28;20327;-80
2023/07/11 14:43:34;;;;;;;4.40;4.20;;;30.40;41.90;;;;;;6265704;28;20312;-78
2023/07/11 14:46:39;;;;;;;4.00;3.80;;;30.40;41.80;;;;;;6270082;28;20234;-79
2023/07/11 14:49:42;;;;;;;4.47;4.28;;;30.50;42.00;;;;;;6250625;28;20743;-78
2023/07/11 14:52:46;;;;;;;4.40;4.10;;;30.70;41.60;;;;;;6260680;28;20321;-80
2023/07/11 14:55:49;;;;;;;4.22;4.03;;;30.90;42.20;;;;;;6285965;28;20320;-80
2023/07/11 14:58:56;;;;;;;4.22;4.00;;;30.90;41.70;;;;;;6251644;28;20345;-81
2023/07/11 15:02:13;;;;;;;4.40;4.20;;;30.80;42.10;;;;;;6260000;28;20338;-79
2023/07/11 15:05:18;;;;;;;4.75;4.35;;;30.50;41.90;;;;;;6252657;28;21098;-81
2023/07/11 15:08:27;;;;;;;4.50;4.20;;;30.60;41.40;;;;;;6264478;28;20540;-83
2023/07/11 15:11:36;;;;;;;5.40;4.25;;;30.70;42.00;;;;;;6267095;28;20237;-81
2023/07/11 15:14:41;;;;;;;4.53;4.32;;;30.80;41.40;;;;;;6261878;28;20721;-81
2023/07/11 15:18:06;;;;;;;4.80;4.60;;;30.60;41.50;;;;;;6270519;28;20242;-83
2023/07/11 15:21:09;;;;;;;3.72;3.63;;;30.70;41.80;;;;;;6268895;28;20653;-79
2023/07/11 15:24:14;;;;;;;5.25;4.90;;;30.70;41.70;;;;;;6267709;28;20238;-80
2023/07/11 15:27:20;;;;;;;4.93;4.45;;;30.50;41.90;;;;;;6257120;28;20234;-80
2023/07/11 15:30:23;;;;;;;5.05;4.85;;;30.50;41.70;;;;;;6260655;28;20894;-79
2023/07/11 15:33:31;;;;;;;4.00;3.90;;;30.60;41.20;;;;;;6265658;28;20233;-78
2023/07/11 15:36:34;;;;;;;4.60;4.30;;;30.80;41.40;;;;;;6268605;28;20317;-81
2023/07/11 15:39:37;;;;;;;5.22;4.82;;;31.00;41.10;;;;;;6276815;28;20291;-81
2023/07/11 15:42:41;;;;;;;4.68;4.38;;;31.10;41.50;;;;;;6279319;28;20311;-80
2023/07/11 15:45:44;;;;;;;4.93;4.60;;;31.20;41.30;;;;;;6281087;28;20324;-80
2023/07/11 15:48:48;;;;;;;5.72;4.22;;;31.10;41.40;;;;;;6281611;28;20387;-83
2023/07/11 15:51:52;;;;;;;5.07;4.78;;;31.10;41.20;;;;;;6271441;28;20249;-80
2023/07/11 15:54:55;;;;;;;4.22;3.92;;;31.10;41.50;;;;;;6277691;28;20612;-78
2023/07/11 15:57:59;;;;;;;4.35;4.10;;;31.00;41.70;;;;;;6285583;28;20286;-79
2023/07/11 16:01:02;;;;;;;4.65;4.43;;;30.90;41.90;;;;;;6279387;28;20237;-79
2023/07/11 16:04:14;;;;;;;5.43;4.97;;;30.80;41.10;;;;;;6273548;28;20241;-78
2023/07/11 16:07:19;;;;;;;5.80;5.30;;;30.60;42.00;;;;;;6280087;28;20233;-76
2023/07/11 16:10:25;;;;;;;5.28;4.88;;;30.50;42.00;;;;;;6288156;28;20251;-76